CheckWX is a tool to help pilots better visualize weather data.  It is not intended as a substitute for an official pre-flight weather briefing.

20:25:09 UTC

KMGM METAR
Montgomery Regional (Dannelly Field) Airport
Montgomery, Alabama, USA
Current

32 mins ago

KMGM 201953Z 27020G30KT 10SM FEW070 19/02 A2988 RMK AO2 PK WND 28030/1952 SLP117 T01940017
Observed
Apr-20 @ 19:53 UTC
Wind
  • 270° at 20 KTS
  • Gusting to 30 KTS
Visibility
10 SM
Flight Rules
VFR
Cloud Levels
  • Few at 7,000' AGL
Temperature
19°C / 66°F
Dewpoint
C / 36°F
Humidity
32%
Altimeter
29.88" Hg
Pressure
1011.82 hPa
Previous

2 hours ago

KMGM 201853Z 29015G29KT 10SM FEW065 19/03 A2988 RMK AO2 PK WND 26029/1847 SLP118 T01890028
Observed
Apr-20 @ 18:53 UTC
Wind
  • 290° at 15 KTS
  • Gusting to 29 KTS
Visibility
10 SM
Flight Rules
VFR
Cloud Levels
  • Few at 6,500' AGL
Temperature
19°C / 66°F
Dewpoint
C / 37°F
Humidity
35%
Altimeter
29.88" Hg
Pressure
1011.82 hPa
Previous

3 hours ago

KMGM 201753Z 26014G24KT 10SM FEW060 18/03 A2988 RMK AO2 PK WND 28027/1728 SLP117 T01830033 10183 20094 51005
Observed
Apr-20 @ 17:53 UTC
Wind
  • 260° at 14 KTS
  • Gusting to 24 KTS
Visibility
10 SM
Flight Rules
VFR
Cloud Levels
  • Few at 6,000' AGL
Temperature
18°C / 64°F
Dewpoint
C / 37°F
Humidity
37%
Altimeter
29.88" Hg
Pressure
1011.82 hPa